sensor_id;sensor_type;location;lat;lon;timestamp;pressure;altitude;pressure_sealevel;temperature;humidity
70198;BME280;57582;-34.876;138.628;2023-02-20T00:00:47;101122;;;30.77;21.69
70198;BME280;57582;-34.876;138.628;2023-02-20T00:03:47;101129;;;30.92;21.76
70198;BME280;57582;-34.876;138.628;2023-02-20T00:06:48;101139;;;31.17;20.78
70198;BME280;57582;-34.876;138.628;2023-02-20T00:09:47;101134;;;31.48;20.51
70198;BME280;57582;-34.876;138.628;2023-02-20T00:12:47;101132;;;31.71;20.49
70198;BME280;57582;-34.876;138.628;2023-02-20T00:15:47;101134;;;31.86;20.65
70198;BME280;57582;-34.876;138.628;2023-02-20T00:18:47;101140;;;32.11;20.16
70198;BME280;57582;-34.876;138.628;2023-02-20T00:21:47;101138;;;32.38;20.51
70198;BME280;57582;-34.876;138.628;2023-02-20T00:24:48;101154;;;32.28;19.93
70198;BME280;57582;-34.876;138.628;2023-02-20T00:27:47;101155;;;32.40;20.40
70198;BME280;57582;-34.876;138.628;2023-02-20T00:30:47;101157;;;32.64;19.93
70198;BME280;57582;-34.876;138.628;2023-02-20T00:33:47;101162;;;32.73;19.77
70198;BME280;57582;-34.876;138.628;2023-02-20T00:36:47;101165;;;32.92;19.14
70198;BME280;57582;-34.876;138.628;2023-02-20T00:39:47;101165;;;33.13;19.85
70198;BME280;57582;-34.876;138.628;2023-02-20T00:42:48;101163;;;33.32;19.50
70198;BME280;57582;-34.876;138.628;2023-02-20T00:45:47;101166;;;33.34;19.17
70198;BME280;57582;-34.876;138.628;2023-02-20T00:48:48;101177;;;33.47;18.40
70198;BME280;57582;-34.876;138.628;2023-02-20T00:51:48;101182;;;33.25;18.78
70198;BME280;57582;-34.876;138.628;2023-02-20T00:54:48;101196;;;33.45;18.92
70198;BME280;57582;-34.876;138.628;2023-02-20T00:57:47;101194;;;33.63;18.59
70198;BME280;57582;-34.876;138.628;2023-02-20T01:00:47;101202;;;33.80;19.14
70198;BME280;57582;-34.876;138.628;2023-02-20T01:03:47;101195;;;34.01;18.94
70198;BME280;57582;-34.876;138.628;2023-02-20T01:06:47;101194;;;34.17;20.36
70198;BME280;57582;-34.876;138.628;2023-02-20T01:09:47;101193;;;34.21;21.48
70198;BME280;57582;-34.876;138.628;2023-02-20T01:12:48;101201;;;34.19;20.50
70198;BME280;57582;-34.876;138.628;2023-02-20T01:15:47;101201;;;34.21;21.77
70198;BME280;57582;-34.876;138.628;2023-02-20T01:18:48;101213;;;34.10;21.68
70198;BME280;57582;-34.876;138.628;2023-02-20T01:21:47;101219;;;33.90;22.11
70198;BME280;57582;-34.876;138.628;2023-02-20T01:24:48;101219;;;33.80;21.43
70198;BME280;57582;-34.876;138.628;2023-02-20T01:27:47;101234;;;33.63;22.09
70198;BME280;57582;-34.876;138.628;2023-02-20T01:30:47;101242;;;33.46;22.14
70198;BME280;57582;-34.876;138.628;2023-02-20T01:33:47;101248;;;33.22;21.84
70198;BME280;57582;-34.876;138.628;2023-02-20T01:36:49;101246;;;32.84;22.13
70198;BME280;57582;-34.876;138.628;2023-02-20T01:39:47;101255;;;32.79;22.72
70198;BME280;57582;-34.876;138.628;2023-02-20T01:42:48;101248;;;32.71;22.37
70198;BME280;57582;-34.876;138.628;2023-02-20T01:45:47;101254;;;32.47;22.68
70198;BME280;57582;-34.876;138.628;2023-02-20T01:48:48;101264;;;32.15;23.50
70198;BME280;57582;-34.876;138.628;2023-02-20T01:51:50;101257;;;32.03;24.11
70198;BME280;57582;-34.876;138.628;2023-02-20T01:54:50;101257;;;31.92;23.98
70198;BME280;57582;-34.876;138.628;2023-02-20T01:57:49;101250;;;31.64;23.67
70198;BME280;57582;-34.876;138.628;2023-02-20T02:00:49;101248;;;31.55;24.50
70198;BME280;57582;-34.876;138.628;2023-02-20T02:03:48;101241;;;31.52;25.58
70198;BME280;57582;-34.876;138.628;2023-02-20T02:06:48;101239;;;31.68;24.79
70198;BME280;57582;-34.876;138.628;2023-02-20T02:09:52;101240;;;31.73;25.29
70198;BME280;57582;-34.876;138.628;2023-02-20T02:12:48;101243;;;31.91;25.36
70198;BME280;57582;-34.876;138.628;2023-02-20T02:15:51;101249;;;32.03;25.12
70198;BME280;57582;-34.876;138.628;2023-02-20T02:18:50;101252;;;32.13;25.31
70198;BME280;57582;-34.876;138.628;2023-02-20T02:33:55;101239;;;31.95;27.40
70198;BME280;57582;-34.876;138.628;2023-02-20T02:37:08;101237;;;31.94;27.06
70198;BME280;57582;-34.876;138.628;2023-02-20T02:39:54;101234;;;32.00;26.97
70198;BME280;57582;-34.876;138.628;2023-02-20T02:45:52;101224;;;32.23;26.20
70198;BME280;57582;-34.876;138.628;2023-02-20T02:48:51;101226;;;32.41;26.75
70198;BME280;57582;-34.876;138.628;2023-02-20T02:51:47;101217;;;32.53;27.43
70198;BME280;57582;-34.876;138.628;2023-02-20T02:54:48;101212;;;32.62;28.34
70198;BME280;57582;-34.876;138.628;2023-02-20T02:57:47;101209;;;32.61;29.04
70198;BME280;57582;-34.876;138.628;2023-02-20T03:00:57;101205;;;32.56;29.12
70198;BME280;57582;-34.876;138.628;2023-02-20T03:03:47;101202;;;32.71;29.59
70198;BME280;57582;-34.876;138.628;2023-02-20T03:06:49;101188;;;32.72;28.94
70198;BME280;57582;-34.876;138.628;2023-02-20T03:09:51;101186;;;32.71;28.46
70198;BME280;57582;-34.876;138.628;2023-02-20T03:12:49;101173;;;32.68;27.79
70198;BME280;57582;-34.876;138.628;2023-02-20T03:15:50;101161;;;32.92;25.86
70198;BME280;57582;-34.876;138.628;2023-02-20T03:18:48;101153;;;33.14;25.49
70198;BME280;57582;-34.876;138.628;2023-02-20T03:21:47;101144;;;33.37;24.35
70198;BME280;57582;-34.876;138.628;2023-02-20T03:24:49;101143;;;33.47;25.01
70198;BME280;57582;-34.876;138.628;2023-02-20T03:27:50;101131;;;33.74;24.36
70198;BME280;57582;-34.876;138.628;2023-02-20T03:30:49;101134;;;33.96;23.65
70198;BME280;57582;-34.876;138.628;2023-02-20T03:33:55;101119;;;34.17;23.57
70198;BME280;57582;-34.876;138.628;2023-02-20T03:36:50;101127;;;34.36;23.63
70198;BME280;57582;-34.876;138.628;2023-02-20T03:39:48;101113;;;34.57;23.50
70198;BME280;57582;-34.876;138.628;2023-02-20T03:42:48;101119;;;34.67;23.05
70198;BME280;57582;-34.876;138.628;2023-02-20T03:45:48;101118;;;34.70;23.73
70198;BME280;57582;-34.876;138.628;2023-02-20T03:51:47;101112;;;34.90;25.49
70198;BME280;57582;-34.876;138.628;2023-02-20T03:54:48;101117;;;34.96;25.65
70198;BME280;57582;-34.876;138.628;2023-02-20T03:57:49;101112;;;34.95;25.78
70198;BME280;57582;-34.876;138.628;2023-02-20T04:00:48;101107;;;34.99;25.59
70198;BME280;57582;-34.876;138.628;2023-02-20T04:03:48;101106;;;35.15;25.27
70198;BME280;57582;-34.876;138.628;2023-02-20T04:06:48;101104;;;35.41;25.90
70198;BME280;57582;-34.876;138.628;2023-02-20T04:09:47;101098;;;35.29;24.47
70198;BME280;57582;-34.876;138.628;2023-02-20T04:12:48;101104;;;35.12;25.74
70198;BME280;57582;-34.876;138.628;2023-02-20T04:15:48;101103;;;35.19;25.65
70198;BME280;57582;-34.876;138.628;2023-02-20T04:18:48;101091;;;35.28;25.80
70198;BME280;57582;-34.876;138.628;2023-02-20T04:24:51;101091;;;34.64;26.70
70198;BME280;57582;-34.876;138.628;2023-02-20T04:27:48;101091;;;34.73;26.59
70198;BME280;57582;-34.876;138.628;2023-02-20T04:30:48;101092;;;34.96;25.49
70198;BME280;57582;-34.876;138.628;2023-02-20T04:33:48;101093;;;35.19;26.11
70198;BME280;57582;-34.876;138.628;2023-02-20T04:36:50;101093;;;35.19;26.73
70198;BME280;57582;-34.876;138.628;2023-02-20T04:39:48;101101;;;35.53;26.53
70198;BME280;57582;-34.876;138.628;2023-02-20T04:42:48;101098;;;35.84;25.51
70198;BME280;57582;-34.876;138.628;2023-02-20T04:45:48;101097;;;35.93;24.99
70198;BME280;57582;-34.876;138.628;2023-02-20T04:48:48;101083;;;36.00;23.64
70198;BME280;57582;-34.876;138.628;2023-02-20T04:51:48;101076;;;36.10;24.23
70198;BME280;57582;-34.876;138.628;2023-02-20T04:54:48;101081;;;36.06;24.25
70198;BME280;57582;-34.876;138.628;2023-02-20T04:57:48;101077;;;35.64;24.23
70198;BME280;57582;-34.876;138.628;2023-02-20T05:00:48;101067;;;35.81;24.67
70198;BME280;57582;-34.876;138.628;2023-02-20T05:03:48;101066;;;35.73;24.68
70198;BME280;57582;-34.876;138.628;2023-02-20T05:06:50;101071;;;36.00;23.59
70198;BME280;57582;-34.876;138.628;2023-02-20T05:09:48;101067;;;36.11;23.67
70198;BME280;57582;-34.876;138.628;2023-02-20T05:12:48;101070;;;35.94;22.86
70198;BME280;57582;-34.876;138.628;2023-02-20T05:15:48;101068;;;36.03;23.65
70198;BME280;57582;-34.876;138.628;2023-02-20T05:18:48;101068;;;36.09;23.09
70198;BME280;57582;-34.876;138.628;2023-02-20T05:21:48;101063;;;36.19;20.82
70198;BME280;57582;-34.876;138.628;2023-02-20T05:24:49;101058;;;36.16;20.25
70198;BME280;57582;-34.876;138.628;2023-02-20T05:27:48;101050;;;36.23;20.43
70198;BME280;57582;-34.876;138.628;2023-02-20T05:30:48;101050;;;36.08;19.39
70198;BME280;57582;-34.876;138.628;2023-02-20T05:33:48;101053;;;35.34;18.67
70198;BME280;57582;-34.876;138.628;2023-02-20T05:36:48;101039;;;35.27;18.70
70198;BME280;57582;-34.876;138.628;2023-02-20T05:39:48;101034;;;34.93;18.70
70198;BME280;57582;-34.876;138.628;2023-02-20T05:42:48;101025;;;35.17;20.32
70198;BME280;57582;-34.876;138.628;2023-02-20T05:45:48;101011;;;34.84;18.81
70198;BME280;57582;-34.876;138.628;2023-02-20T05:48:49;101004;;;34.62;19.10
70198;BME280;57582;-34.876;138.628;2023-02-20T05:51:48;101010;;;34.75;18.30
70198;BME280;57582;-34.876;138.628;2023-02-20T05:54:48;101007;;;34.36;19.58
70198;BME280;57582;-34.876;138.628;2023-02-20T05:57:48;101006;;;34.06;21.36
70198;BME280;57582;-34.876;138.628;2023-02-20T06:00:48;101012;;;34.27;21.44
70198;BME280;57582;-34.876;138.628;2023-02-20T06:03:48;101011;;;34.64;18.99
70198;BME280;57582;-34.876;138.628;2023-02-20T06:06:49;101023;;;34.00;19.18
70198;BME280;57582;-34.876;138.628;2023-02-20T06:09:48;101017;;;34.27;18.33
70198;BME280;57582;-34.876;138.628;2023-02-20T06:12:48;101008;;;34.09;19.39
70198;BME280;57582;-34.876;138.628;2023-02-20T06:15:48;101007;;;34.31;20.15
70198;BME280;57582;-34.876;138.628;2023-02-20T06:18:48;100996;;;34.75;20.02
70198;BME280;57582;-34.876;138.628;2023-02-20T06:21:48;100995;;;34.64;18.67
70198;BME280;57582;-34.876;138.628;2023-02-20T06:24:48;100987;;;34.61;18.46
70198;BME280;57582;-34.876;138.628;2023-02-20T06:27:48;100995;;;33.81;17.67
70198;BME280;57582;-34.876;138.628;2023-02-20T06:30:48;100989;;;33.52;18.60
70198;BME280;57582;-34.876;138.628;2023-02-20T06:33:48;100984;;;33.65;19.46
70198;BME280;57582;-34.876;138.628;2023-02-20T06:36:48;100977;;;33.94;19.32
70198;BME280;57582;-34.876;138.628;2023-02-20T06:39:48;100983;;;34.03;19.45
70198;BME280;57582;-34.876;138.628;2023-02-20T06:42:48;100985;;;34.11;19.19
70198;BME280;57582;-34.876;138.628;2023-02-20T06:45:48;100988;;;34.14;18.81
70198;BME280;57582;-34.876;138.628;2023-02-20T06:48:51;100982;;;34.12;19.12
70198;BME280;57582;-34.876;138.628;2023-02-20T06:51:51;100983;;;33.95;16.70
70198;BME280;57582;-34.876;138.628;2023-02-20T06:54:48;100996;;;33.90;17.08
70198;BME280;57582;-34.876;138.628;2023-02-20T06:57:48;100998;;;33.88;17.06
70198;BME280;57582;-34.876;138.628;2023-02-20T07:00:48;100994;;;34.21;16.57
70198;BME280;57582;-34.876;138.628;2023-02-20T07:03:48;100997;;;34.33;16.52
70198;BME280;57582;-34.876;138.628;2023-02-20T07:06:48;100998;;;33.81;16.67
70198;BME280;57582;-34.876;138.628;2023-02-20T07:09:48;101000;;;33.55;16.78
70198;BME280;57582;-34.876;138.628;2023-02-20T07:12:48;100998;;;33.10;17.44
70198;BME280;57582;-34.876;138.628;2023-02-20T07:15:48;101005;;;33.31;17.07
70198;BME280;57582;-34.876;138.628;2023-02-20T07:18:48;101007;;;33.66;17.40
70198;BME280;57582;-34.876;138.628;2023-02-20T07:21:48;100996;;;33.80;17.91
70198;BME280;57582;-34.876;138.628;2023-02-20T07:24:49;100996;;;33.66;17.19
70198;BME280;57582;-34.876;138.628;2023-02-20T07:27:48;100999;;;33.24;16.33
70198;BME280;57582;-34.876;138.628;2023-02-20T07:30:48;100998;;;33.15;16.37
70198;BME280;57582;-34.876;138.628;2023-02-20T07:33:48;100992;;;33.06;16.15
70198;BME280;57582;-34.876;138.628;2023-02-20T07:36:48;100986;;;33.13;16.19
70198;BME280;57582;-34.876;138.628;2023-02-20T07:39:48;100988;;;33.44;16.47
70198;BME280;57582;-34.876;138.628;2023-02-20T07:42:48;100995;;;33.49;16.05
70198;BME280;57582;-34.876;138.628;2023-02-20T07:45:48;100993;;;33.13;16.18
70198;BME280;57582;-34.876;138.628;2023-02-20T07:51:48;100986;;;33.23;15.92
70198;BME280;57582;-34.876;138.628;2023-02-20T07:54:48;100987;;;32.70;16.50
70198;BME280;57582;-34.876;138.628;2023-02-20T07:57:49;101000;;;32.36;17.03
70198;BME280;57582;-34.876;138.628;2023-02-20T08:00:48;100999;;;32.51;17.18
70198;BME280;57582;-34.876;138.628;2023-02-20T08:03:48;101004;;;32.64;17.36
70198;BME280;57582;-34.876;138.628;2023-02-20T08:06:49;101006;;;32.28;17.68
70198;BME280;57582;-34.876;138.628;2023-02-20T08:09:48;101011;;;32.29;17.65
70198;BME280;57582;-34.876;138.628;2023-02-20T08:12:49;101004;;;32.41;17.72
70198;BME280;57582;-34.876;138.628;2023-02-20T08:15:48;101018;;;32.33;17.88
70198;BME280;57582;-34.876;138.628;2023-02-20T08:18:48;101014;;;32.32;17.60
70198;BME280;57582;-34.876;138.628;2023-02-20T08:21:48;101011;;;32.39;17.59
70198;BME280;57582;-34.876;138.628;2023-02-20T08:24:49;101023;;;32.26;17.83
70198;BME280;57582;-34.876;138.628;2023-02-20T08:27:48;101026;;;32.38;17.97
70198;BME280;57582;-34.876;138.628;2023-02-20T08:30:49;101018;;;32.40;17.78
70198;BME280;57582;-34.876;138.628;2023-02-20T08:33:48;101021;;;32.25;17.76
70198;BME280;57582;-34.876;138.628;2023-02-20T08:36:48;101024;;;32.25;17.82
70198;BME280;57582;-34.876;138.628;2023-02-20T08:39:48;101022;;;32.26;17.37
70198;BME280;57582;-34.876;138.628;2023-02-20T08:42:49;101032;;;31.99;17.25
70198;BME280;57582;-34.876;138.628;2023-02-20T08:45:48;101035;;;32.03;17.35
70198;BME280;57582;-34.876;138.628;2023-02-20T08:48:49;101034;;;31.94;17.49
70198;BME280;57582;-34.876;138.628;2023-02-20T08:51:51;101036;;;31.92;17.50
70198;BME280;57582;-34.876;138.628;2023-02-20T08:54:49;101042;;;31.67;17.47
70198;BME280;57582;-34.876;138.628;2023-02-20T08:57:48;101042;;;31.62;17.78
70198;BME280;57582;-34.876;138.628;2023-02-20T09:00:49;101043;;;31.67;17.41
70198;BME280;57582;-34.876;138.628;2023-02-20T09:03:48;101054;;;31.47;17.22
70198;BME280;57582;-34.876;138.628;2023-02-20T09:06:49;101049;;;31.34;17.47
70198;BME280;57582;-34.876;138.628;2023-02-20T09:09:48;101059;;;31.43;17.40
70198;BME280;57582;-34.876;138.628;2023-02-20T09:12:49;101047;;;31.26;16.80
70198;BME280;57582;-34.876;138.628;2023-02-20T09:15:48;101053;;;31.19;16.90
70198;BME280;57582;-34.876;138.628;2023-02-20T09:18:48;101054;;;31.03;17.02
70198;BME280;57582;-34.876;138.628;2023-02-20T09:21:48;101057;;;30.86;16.98
70198;BME280;57582;-34.876;138.628;2023-02-20T09:24:49;101074;;;30.91;16.91
70198;BME280;57582;-34.876;138.628;2023-02-20T09:27:48;101077;;;30.73;16.80
70198;BME280;57582;-34.876;138.628;2023-02-20T09:30:49;101089;;;30.78;16.91
70198;BME280;57582;-34.876;138.628;2023-02-20T09:33:48;101093;;;30.60;16.66
70198;BME280;57582;-34.876;138.628;2023-02-20T09:36:49;101094;;;30.51;16.64
70198;BME280;57582;-34.876;138.628;2023-02-20T09:39:48;101103;;;30.33;17.16
70198;BME280;57582;-34.876;138.628;2023-02-20T09:51:49;101118;;;30.30;17.76
70198;BME280;57582;-34.876;138.628;2023-02-20T09:54:50;101124;;;30.22;17.52
70198;BME280;57582;-34.876;138.628;2023-02-20T09:57:49;101133;;;30.21;18.06
70198;BME280;57582;-34.876;138.628;2023-02-20T10:00:50;101129;;;30.25;18.35
70198;BME280;57582;-34.876;138.628;2023-02-20T10:03:53;101135;;;30.34;18.36
70198;BME280;57582;-34.876;138.628;2023-02-20T10:06:50;101140;;;30.37;18.15
70198;BME280;57582;-34.876;138.628;2023-02-20T10:09:48;101137;;;30.11;18.50
70198;BME280;57582;-34.876;138.628;2023-02-20T10:21:52;101149;;;30.42;18.87
70198;BME280;57582;-34.876;138.628;2023-02-20T10:30:54;101143;;;30.45;19.20
70198;BME280;57582;-34.876;138.628;2023-02-20T10:33:50;101150;;;30.36;18.96
70198;BME280;57582;-34.876;138.628;2023-02-20T10:36:50;101147;;;30.13;18.79
70198;BME280;57582;-34.876;138.628;2023-02-20T10:39:53;101145;;;30.03;18.67
70198;BME280;57582;-34.876;138.628;2023-02-20T10:48:49;101161;;;29.92;18.74
70198;BME280;57582;-34.876;138.628;2023-02-20T10:51:49;101169;;;30.06;19.04
70198;BME280;57582;-34.876;138.628;2023-02-20T10:54:52;101170;;;29.98;18.87
70198;BME280;57582;-34.876;138.628;2023-02-20T11:00:53;101178;;;29.82;18.49
70198;BME280;57582;-34.876;138.628;2023-02-20T11:03:54;101175;;;29.84;18.65
70198;BME280;57582;-34.876;138.628;2023-02-20T11:06:49;101176;;;29.94;18.74
70198;BME280;57582;-34.876;138.628;2023-02-20T11:09:48;101180;;;30.11;18.89
70198;BME280;57582;-34.876;138.628;2023-02-20T11:12:50;101176;;;30.15;18.07
70198;BME280;57582;-34.876;138.628;2023-02-20T11:15:49;101178;;;30.08;18.07
70198;BME280;57582;-34.876;138.628;2023-02-20T11:19:00;101171;;;30.12;18.25
70198;BME280;57582;-34.876;138.628;2023-02-20T11:21:49;101176;;;30.18;18.10
70198;BME280;57582;-34.876;138.628;2023-02-20T11:24:49;101187;;;30.25;17.87
70198;BME280;57582;-34.876;138.628;2023-02-20T11:27:50;101179;;;30.17;17.88
70198;BME280;57582;-34.876;138.628;2023-02-20T11:30:57;101178;;;30.11;18.12
70198;BME280;57582;-34.876;138.628;2023-02-20T11:33:48;101179;;;30.13;18.14
70198;BME280;57582;-34.876;138.628;2023-02-20T11:36:51;101178;;;29.94;18.38
70198;BME280;57582;-34.876;138.628;2023-02-20T11:39:48;101183;;;30.11;18.38
70198;BME280;57582;-34.876;138.628;2023-02-20T11:42:49;101188;;;30.09;18.51
70198;BME280;57582;-34.876;138.628;2023-02-20T11:45:48;101197;;;29.80;18.45
70198;BME280;57582;-34.876;138.628;2023-02-20T11:51:48;101202;;;30.06;18.63
70198;BME280;57582;-34.876;138.628;2023-02-20T11:55:07;101212;;;30.17;18.77
70198;BME280;57582;-34.876;138.628;2023-02-20T11:57:48;101204;;;30.15;18.84
70198;BME280;57582;-34.876;138.628;2023-02-20T12:00:49;101212;;;29.89;18.47
70198;BME280;57582;-34.876;138.628;2023-02-20T12:03:53;101199;;;29.80;18.91
70198;BME280;57582;-34.876;138.628;2023-02-20T12:06:49;101199;;;29.58;19.21
70198;BME280;57582;-34.876;138.628;2023-02-20T12:09:49;101196;;;29.36;19.58
70198;BME280;57582;-34.876;138.628;2023-02-20T12:12:49;101197;;;29.44;19.90
70198;BME280;57582;-34.876;138.628;2023-02-20T12:15:53;101198;;;29.35;20.53
70198;BME280;57582;-34.876;138.628;2023-02-20T12:34:00;101218;;;28.30;23.50
70198;BME280;57582;-34.876;138.628;2023-02-20T12:36:57;101223;;;28.25;23.79
70198;BME280;57582;-34.876;138.628;2023-02-20T12:39:59;101223;;;28.25;24.12
70198;BME280;57582;-34.876;138.628;2023-02-20T12:54:53;101199;;;27.51;26.80
70198;BME280;57582;-34.876;138.628;2023-02-20T13:00:51;101198;;;27.39;27.55
70198;BME280;57582;-34.876;138.628;2023-02-20T13:09:58;101195;;;26.87;28.99
70198;BME280;57582;-34.876;138.628;2023-02-20T13:12:50;101200;;;26.80;29.16
70198;BME280;57582;-34.876;138.628;2023-02-20T13:15:53;101201;;;26.61;29.38
70198;BME280;57582;-34.876;138.628;2023-02-20T13:21:48;101217;;;26.59;28.84
70198;BME280;57582;-34.876;138.628;2023-02-20T13:24:49;101213;;;26.60;28.71
70198;BME280;57582;-34.876;138.628;2023-02-20T13:27:57;101212;;;26.71;28.42
70198;BME280;57582;-34.876;138.628;2023-02-20T13:33:50;101211;;;26.80;28.58
70198;BME280;57582;-34.876;138.628;2023-02-20T13:36:51;101202;;;26.91;28.75
70198;BME280;57582;-34.876;138.628;2023-02-20T13:39:49;101186;;;26.49;29.65
70198;BME280;57582;-34.876;138.628;2023-02-20T13:43:52;101181;;;26.62;29.75
70198;BME280;57582;-34.876;138.628;2023-02-20T13:46:07;101187;;;26.56;29.93
70198;BME280;57582;-34.876;138.628;2023-02-20T13:48:50;101187;;;26.73;29.97
70198;BME280;57582;-34.876;138.628;2023-02-20T13:51:49;101179;;;26.74;30.17
70198;BME280;57582;-34.876;138.628;2023-02-20T13:54:49;101197;;;26.70;30.42
70198;BME280;57582;-34.876;138.628;2023-02-20T14:09:58;101178;;;26.33;32.21
70198;BME280;57582;-34.876;138.628;2023-02-20T14:13:09;101174;;;26.48;31.98
70198;BME280;57582;-34.876;138.628;2023-02-20T14:15:50;101176;;;26.34;32.23
70198;BME280;57582;-34.876;138.628;2023-02-20T14:18:49;101172;;;26.36;32.41
70198;BME280;57582;-34.876;138.628;2023-02-20T14:21:49;101180;;;25.83;33.55
70198;BME280;57582;-34.876;138.628;2023-02-20T14:25:06;101175;;;25.82;33.67
70198;BME280;57582;-34.876;138.628;2023-02-20T14:27:49;101166;;;25.93;33.31
70198;BME280;57582;-34.876;138.628;2023-02-20T14:31:09;101165;;;25.89;33.23
70198;BME280;57582;-34.876;138.628;2023-02-20T14:33:50;101165;;;25.84;32.93
70198;BME280;57582;-34.876;138.628;2023-02-20T14:39:51;101170;;;25.85;32.72
70198;BME280;57582;-34.876;138.628;2023-02-20T14:42:49;101170;;;25.99;32.79
70198;BME280;57582;-34.876;138.628;2023-02-20T14:46:05;101163;;;26.03;33.12
70198;BME280;57582;-34.876;138.628;2023-02-20T14:48:49;101153;;;26.00;33.05
70198;BME280;57582;-34.876;138.628;2023-02-20T14:51:49;101159;;;26.02;33.20
70198;BME280;57582;-34.876;138.628;2023-02-20T14:54:58;101149;;;26.08;33.26
70198;BME280;57582;-34.876;138.628;2023-02-20T14:57:49;101160;;;26.10;33.47
70198;BME280;57582;-34.876;138.628;2023-02-20T15:00:49;101166;;;26.13;33.79
70198;BME280;57582;-34.876;138.628;2023-02-20T15:04:14;101177;;;26.21;33.88
70198;BME280;57582;-34.876;138.628;2023-02-20T15:06:50;101171;;;26.16;34.53
70198;BME280;57582;-34.876;138.628;2023-02-20T15:09:50;101168;;;26.14;34.91
70198;BME280;57582;-34.876;138.628;2023-02-20T15:12:49;101164;;;26.12;35.09
70198;BME280;57582;-34.876;138.628;2023-02-20T15:15:51;101152;;;26.08;35.30
70198;BME280;57582;-34.876;138.628;2023-02-20T15:18:49;101157;;;26.11;35.32
70198;BME280;57582;-34.876;138.628;2023-02-20T15:21:57;101154;;;26.09;35.30
70198;BME280;57582;-34.876;138.628;2023-02-20T15:24:49;101169;;;25.93;35.55
70198;BME280;57582;-34.876;138.628;2023-02-20T15:33:50;101165;;;25.94;35.18
70198;BME280;57582;-34.876;138.628;2023-02-20T15:36:49;101166;;;25.96;35.21
70198;BME280;57582;-34.876;138.628;2023-02-20T15:39:49;101159;;;25.89;35.50
70198;BME280;57582;-34.876;138.628;2023-02-20T15:42:49;101161;;;25.72;35.99
70198;BME280;57582;-34.876;138.628;2023-02-20T15:45:49;101163;;;25.66;36.27
70198;BME280;57582;-34.876;138.628;2023-02-20T15:48:49;101153;;;25.59;36.47
70198;BME280;57582;-34.876;138.628;2023-02-20T15:51:49;101154;;;25.66;36.47
70198;BME280;57582;-34.876;138.628;2023-02-20T15:54:51;101147;;;25.61;36.69
70198;BME280;57582;-34.876;138.628;2023-02-20T15:57:49;101150;;;25.57;36.88
70198;BME280;57582;-34.876;138.628;2023-02-20T16:00:49;101146;;;25.54;36.94
70198;BME280;57582;-34.876;138.628;2023-02-20T16:03:49;101158;;;25.55;36.98
70198;BME280;57582;-34.876;138.628;2023-02-20T16:06:49;101149;;;25.55;36.86
70198;BME280;57582;-34.876;138.628;2023-02-20T16:09:49;101156;;;25.54;36.89
70198;BME280;57582;-34.876;138.628;2023-02-20T16:12:51;101156;;;25.60;36.78
70198;BME280;57582;-34.876;138.628;2023-02-20T16:15:49;101155;;;25.63;36.48
70198;BME280;57582;-34.876;138.628;2023-02-20T16:18:50;101152;;;25.63;36.37
70198;BME280;57582;-34.876;138.628;2023-02-20T16:21:49;101155;;;25.76;36.10
70198;BME280;57582;-34.876;138.628;2023-02-20T16:24:49;101146;;;25.78;35.59
70198;BME280;57582;-34.876;138.628;2023-02-20T16:27:50;101145;;;26.00;35.24
70198;BME280;57582;-34.876;138.628;2023-02-20T16:30:49;101141;;;25.98;34.96
70198;BME280;57582;-34.876;138.628;2023-02-20T16:33:49;101136;;;26.08;34.80
70198;BME280;57582;-34.876;138.628;2023-02-20T16:36:50;101139;;;25.97;34.83
70198;BME280;57582;-34.876;138.628;2023-02-20T16:39:49;101139;;;25.90;34.96
70198;BME280;57582;-34.876;138.628;2023-02-20T16:42:49;101143;;;25.86;34.96
70198;BME280;57582;-34.876;138.628;2023-02-20T16:45:49;101145;;;25.87;34.95
70198;BME280;57582;-34.876;138.628;2023-02-20T16:48:49;101141;;;25.80;35.11
70198;BME280;57582;-34.876;138.628;2023-02-20T16:51:49;101146;;;25.69;35.47
70198;BME280;57582;-34.876;138.628;2023-02-20T16:54:50;101146;;;25.67;35.63
70198;BME280;57582;-34.876;138.628;2023-02-20T16:57:49;101147;;;25.68;35.71
70198;BME280;57582;-34.876;138.628;2023-02-20T17:00:49;101153;;;25.63;35.97
70198;BME280;57582;-34.876;138.628;2023-02-20T17:03:49;101158;;;25.58;36.06
70198;BME280;57582;-34.876;138.628;2023-02-20T17:06:49;101161;;;25.60;35.98
70198;BME280;57582;-34.876;138.628;2023-02-20T17:09:49;101163;;;25.66;35.79
70198;BME280;57582;-34.876;138.628;2023-02-20T17:12:50;101166;;;25.68;35.68
70198;BME280;57582;-34.876;138.628;2023-02-20T17:15:49;101170;;;25.67;35.71
70198;BME280;57582;-34.876;138.628;2023-02-20T17:18:49;101165;;;25.66;35.64
70198;BME280;57582;-34.876;138.628;2023-02-20T17:21:49;101168;;;25.66;35.71
70198;BME280;57582;-34.876;138.628;2023-02-20T17:24:49;101175;;;25.68;35.71
70198;BME280;57582;-34.876;138.628;2023-02-20T17:27:49;101180;;;25.80;35.69
70198;BME280;57582;-34.876;138.628;2023-02-20T17:30:49;101183;;;25.80;35.40
70198;BME280;57582;-34.876;138.628;2023-02-20T17:33:49;101183;;;25.82;35.39
70198;BME280;57582;-34.876;138.628;2023-02-20T17:36:49;101190;;;25.74;35.40
70198;BME280;57582;-34.876;138.628;2023-02-20T17:39:49;101190;;;25.54;35.82
70198;BME280;57582;-34.876;138.628;2023-02-20T17:42:49;101185;;;25.61;35.38